Chicago, Illinois
Traffic Map
Current Weather Conditions
Chicago, Illinois
Overcast
Overcast
48°
Feels Like: 44°
Wind Chill: 44° Ceiling: 16000
Heat Index: 48° Visibility: 10mi
Dew Point: 38° Wind: 8mph
Humidity: 68% Direction: 170° (S)
Pressure: 29.94in Gusts: 0mph
Raw Report DataKMDW 240853Z 17007KT 10SM OVC160 09/03 A2994 RMK AO2 SLP141 T00890033 58020
Traffic Incident Summary
Active as of:
Severity:
Category:
InformationThere was an issue retrieving the traffic information for this location. Please try a different location or try again shortly.
Advertisements
Track Severe Weather on mobile